Time;durP1;ratioP1;P1;durP2;ratioP2;P2;SDS_P1;SDS_P2;PMS_P1;PMS_P2;Temp;Humidity;BMP_temperature;BMP_pressure;BME280_temperature;BME280_humidity;BME280_pressure;Samples;Min_cycle;Max_cycle;Signal;HPM_P1;HPM_P2
2023/02/13 00:01:16;;;;;;;49.25;23.10;;;0.30;99.90;;;;;;5066543;28;20047;-69
2023/02/13 00:03:41;;;;;;;49.15;21.83;;;0.30;99.90;;;;;;5071153;28;20021;-69
2023/02/13 00:06:07;;;;;;;54.05;22.65;;;0.20;99.90;;;;;;5072798;28;20024;-69
2023/02/13 00:08:33;;;;;;;61.53;24.73;;;0.10;99.90;;;;;;5079686;28;20410;-69
2023/02/13 00:10:58;;;;;;;61.97;25.75;;;0.10;99.90;;;;;;5072355;28;20021;-69
2023/02/13 00:13:24;;;;;;;60.45;24.98;;;0.10;99.90;;;;;;5071665;28;20470;-71
2023/02/13 00:15:57;;;;;;;58.92;24.80;;;0.10;99.90;;;;;;5072209;28;20095;-69
2023/02/13 00:18:23;;;;;;;56.78;23.42;;;0.10;99.90;;;;;;5072121;28;20466;-71
2023/02/13 00:21:11;;;;;;;57.15;26.27;;;0.10;99.90;;;;;;5071956;28;20178;-69
2023/02/13 00:23:38;;;;;;;64.07;24.27;;;0.10;99.90;;;;;;5067930;28;20029;-68
2023/02/13 00:26:10;;;;;;;58.75;23.42;;;0.00;99.90;;;;;;5070784;28;20086;-67
2023/02/13 00:28:36;;;;;;;58.83;24.48;;;0.00;99.90;;;;;;5070547;28;20391;-67
2023/02/13 00:31:10;;;;;;;60.33;25.75;;;0.00;99.90;;;;;;5071931;28;20035;-67
2023/02/13 00:33:37;;;;;;;59.80;25.02;;;-0.10;99.90;;;;;;5070082;28;20477;-67
2023/02/13 00:36:09;;;;;;;63.00;25.92;;;-0.10;99.90;;;;;;5072889;28;20037;-68
2023/02/13 00:38:35;;;;;;;59.45;24.77;;;-0.10;99.90;;;;;;5067949;28;20033;-67
2023/02/13 00:41:01;;;;;;;68.35;27.55;;;-0.10;99.90;;;;;;5067424;28;20035;-68
2023/02/13 00:43:27;;;;;;;65.93;26.35;;;-0.10;99.90;;;;;;5070583;28;20466;-67
2023/02/13 00:45:52;;;;;;;67.45;26.83;;;-0.10;99.90;;;;;;5072118;28;20029;-67
2023/02/13 00:48:18;;;;;;;61.42;25.10;;;-0.10;99.90;;;;;;5072015;28;20029;-67
2023/02/13 00:50:45;;;;;;;59.10;25.02;;;-0.20;99.90;;;;;;5053120;28;20038;-67
2023/02/13 00:53:11;;;;;;;60.17;26.08;;;-0.20;99.90;;;;;;5066889;28;20072;-68
2023/02/13 00:55:36;;;;;;;69.10;26.60;;;-0.20;99.90;;;;;;5058389;28;20036;-69
2023/02/13 00:58:02;;;;;;;55.95;25.25;;;-0.20;99.90;;;;;;5083201;28;20020;-68
2023/02/13 01:00:28;;;;;;;60.08;24.17;;;-0.20;99.90;;;;;;5070338;28;20059;-68
2023/02/13 01:02:53;;;;;;;57.53;24.67;;;-0.30;99.90;;;;;;5057725;28;20032;-68
2023/02/13 01:05:19;;;;;;;57.15;25.83;;;-0.30;99.90;;;;;;5071157;28;20466;-68
2023/02/13 01:07:44;;;;;;;61.58;25.65;;;-0.40;99.90;;;;;;5072560;28;20031;-68
2023/02/13 01:10:10;;;;;;;64.47;26.30;;;-0.30;99.90;;;;;;5071400;28;20390;-68
2023/02/13 01:12:35;;;;;;;70.60;28.55;;;-0.30;99.90;;;;;;5064669;28;20124;-69
2023/02/13 01:15:02;;;;;;;75.57;28.73;;;-0.30;99.90;;;;;;5061536;28;20025;-68
2023/02/13 01:17:28;;;;;;;78.55;27.38;;;-0.30;99.90;;;;;;5068382;28;20484;-68
2023/02/13 01:19:53;;;;;;;75.35;28.42;;;-0.30;99.90;;;;;;5065941;28;20074;-69
2023/02/13 01:22:19;;;;;;;66.15;25.52;;;-0.30;99.90;;;;;;5070121;28;20025;-68
2023/02/13 01:24:44;;;;;;;67.15;25.70;;;-0.30;99.90;;;;;;5070057;28;20088;-68
2023/02/13 01:27:10;;;;;;;74.63;27.70;;;-0.30;99.90;;;;;;5070528;28;20454;-68
2023/02/13 01:29:36;;;;;;;77.40;28.08;;;-0.30;99.90;;;;;;5069880;28;20029;-68
2023/02/13 01:32:03;;;;;;;68.50;27.05;;;-0.40;99.90;;;;;;5059567;28;20024;-68
2023/02/13 01:34:30;;;;;;;74.53;27.65;;;-0.40;99.90;;;;;;5069820;28;20016;-69
2023/02/13 01:36:56;;;;;;;75.47;28.60;;;-0.40;99.90;;;;;;5071319;28;20031;-68
2023/02/13 01:39:21;;;;;;;63.15;24.48;;;-0.40;99.90;;;;;;5069955;28;20032;-70
2023/02/13 01:41:47;;;;;;;76.82;27.25;;;-0.40;99.90;;;;;;5070301;28;20028;-68
2023/02/13 01:44:48;;;;;;;78.45;26.98;;;-0.40;99.90;;;;;;5073071;28;20044;-68
2023/02/13 01:47:21;;;;;;;67.00;25.05;;;-0.40;99.90;;;;;;5066441;28;20036;-68
2023/02/13 01:49:47;;;;;;;83.35;28.02;;;-0.40;99.90;;;;;;5074307;28;20035;-68
2023/02/13 01:52:15;;;;;;;80.50;26.52;;;-0.50;99.90;;;;;;5074840;28;21178;-68
2023/02/13 01:54:41;;;;;;;78.43;27.52;;;-0.50;99.90;;;;;;5073573;28;20025;-68
2023/02/13 01:57:09;;;;;;;94.35;29.20;;;-0.50;99.90;;;;;;5075192;28;20025;-68
2023/02/13 01:59:43;;;;;;;86.63;29.33;;;-0.60;99.90;;;;;;5072909;28;20037;-69
2023/02/13 02:02:09;;;;;;;85.53;28.52;;;-0.60;99.90;;;;;;5075084;28;20074;-68
2023/02/13 02:04:38;;;;;;;86.97;27.48;;;-0.60;99.90;;;;;;5073531;28;20510;-68
2023/02/13 02:07:16;;;;;;;88.05;29.45;;;-0.60;99.90;;;;;;5071519;28;20021;-68
2023/02/13 02:09:43;;;;;;;83.35;28.33;;;-0.60;99.90;;;;;;5068265;28;20025;-68
2023/02/13 02:12:24;;;;;;;78.53;27.48;;;-0.70;99.90;;;;;;5074655;28;20458;-68
2023/02/13 02:14:53;;;;;;;76.55;26.08;;;-0.70;99.90;;;;;;5081711;28;20047;-68
2023/02/13 02:17:21;;;;;;;68.95;26.90;;;-0.70;99.90;;;;;;5075063;28;20051;-67
2023/02/13 02:19:53;;;;;;;88.18;28.92;;;-0.80;99.90;;;;;;5073473;28;20037;-68
2023/02/13 02:22:24;;;;;;;79.53;28.25;;;-0.70;99.90;;;;;;5074568;28;20468;-68
2023/02/13 02:25:00;;;;;;;91.20;30.38;;;-0.80;99.90;;;;;;5074693;28;20063;-67
2023/02/13 02:28:02;;;;;;;72.07;27.95;;;-0.80;99.90;;;;;;5081347;28;20400;-68
2023/02/13 02:30:28;;;;;;;76.78;28.88;;;-0.80;99.90;;;;;;5091544;28;20036;-68
2023/02/13 02:33:48;;;;;;;79.65;29.00;;;-0.80;99.90;;;;;;5095203;28;20025;-67
2023/02/13 02:36:29;;;;;;;82.85;27.67;;;-0.80;99.90;;;;;;5092397;28;20040;-68
2023/02/13 02:39:15;;;;;;;75.03;27.30;;;-0.80;99.90;;;;;;5086466;28;20020;-68
2023/02/13 02:42:02;;;;;;;92.78;30.90;;;-0.90;99.90;;;;;;5094066;28;20036;-68
2023/02/13 02:44:49;;;;;;;81.97;27.23;;;-0.90;99.90;;;;;;5089818;28;20067;-69
2023/02/13 02:50:38;;;;;;;83.55;29.10;;;-1.00;99.90;;;;;;5094080;28;20504;-68
2023/02/13 02:53:24;;;;;;;83.63;29.30;;;-0.90;99.90;;;;;;5070248;28;20055;-68
2023/02/13 02:56:07;;;;;;;92.00;31.15;;;-0.90;99.90;;;;;;5092201;28;20484;-67
2023/02/13 03:07:16;;;;;;;98.13;32.08;;;-1.00;99.90;;;;;;5094397;28;20401;-68
2023/02/13 03:25:09;;;;;;;95.50;30.77;;;-1.00;99.90;;;;;;5082754;28;20035;-67
2023/02/13 03:31:16;;;;;;;101.07;32.28;;;-1.00;99.90;;;;;;5092465;28;20039;-68
2023/02/13 03:34:04;;;;;;;99.38;31.83;;;-1.00;99.90;;;;;;5089030;28;20032;-68
2023/02/13 03:40:02;;;;;;;94.93;31.17;;;-1.00;99.90;;;;;;5090234;28;20499;-68
2023/02/13 03:42:50;;;;;;;90.18;29.70;;;-1.00;99.90;;;;;;5081993;28;20024;-68
2023/02/13 03:51:05;;;;;;;92.68;29.40;;;-1.20;99.90;;;;;;5093234;28;20046;-68
2023/02/13 03:53:34;;;;;;;91.25;30.58;;;-1.20;99.90;;;;;;5083907;28;20491;-68
2023/02/13 04:01:35;;;;;;;105.05;33.55;;;-1.30;99.90;;;;;;5091715;28;20046;-69
2023/02/13 04:04:08;;;;;;;101.50;33.42;;;-1.30;99.90;;;;;;5092281;28;20020;-69
2023/02/13 04:06:58;;;;;;;107.57;34.28;;;-1.30;99.90;;;;;;5091658;28;20032;-68
2023/02/13 04:09:26;;;;;;;117.18;34.17;;;-1.30;99.90;;;;;;5091610;28;20020;-70
2023/02/13 04:11:55;;;;;;;107.70;33.10;;;-1.20;99.90;;;;;;5092600;28;20404;-67
2023/02/13 04:14:44;;;;;;;107.23;31.20;;;-1.20;99.90;;;;;;5091784;28;20107;-69
2023/02/13 04:17:26;;;;;;;99.15;31.30;;;-1.20;99.90;;;;;;5092312;28;20032;-67
2023/02/13 04:19:52;;;;;;;95.20;30.70;;;-1.30;99.90;;;;;;5083914;28;20047;-67
2023/02/13 04:22:17;;;;;;;86.88;29.77;;;-1.30;99.90;;;;;;5091146;28;20136;-67
2023/02/13 04:24:43;;;;;;;83.50;30.70;;;-1.30;99.90;;;;;;5091195;28;20055;-66
2023/02/13 04:27:13;;;;;;;121.88;36.50;;;-1.40;99.90;;;;;;5092116;28;20044;-67
2023/02/13 04:29:39;;;;;;;109.00;35.90;;;-1.50;99.90;;;;;;5089937;28;20648;-67
2023/02/13 04:32:05;;;;;;;123.22;36.95;;;-1.50;99.90;;;;;;5091740;28;20057;-67
2023/02/13 04:34:30;;;;;;;114.07;34.90;;;-1.40;99.90;;;;;;5091015;28;20178;-68
2023/02/13 04:36:56;;;;;;;113.78;36.13;;;-1.40;99.90;;;;;;5092410;28;20380;-68
2023/02/13 04:39:21;;;;;;;107.50;32.97;;;-1.30;99.90;;;;;;5091445;28;20032;-69
2023/02/13 04:41:47;;;;;;;103.32;33.85;;;-1.30;99.90;;;;;;5090358;28;20020;-67
2023/02/13 04:44:13;;;;;;;102.20;32.13;;;-1.40;99.90;;;;;;5073706;28;20039;-68
2023/02/13 04:46:38;;;;;;;106.78;32.58;;;-1.40;99.90;;;;;;5077629;28;20020;-68
2023/02/13 04:49:04;;;;;;;95.45;32.67;;;-1.40;99.90;;;;;;5092044;28;20107;-67
2023/02/13 04:51:29;;;;;;;88.82;28.23;;;-1.50;99.90;;;;;;5085473;28;20043;-69
2023/02/13 04:53:55;;;;;;;98.15;31.00;;;-1.60;99.90;;;;;;5091719;28;20430;-68
2023/02/13 04:56:21;;;;;;;85.35;29.98;;;-1.60;99.90;;;;;;5091578;28;20081;-70
2023/02/13 04:58:46;;;;;;;104.68;34.40;;;-1.70;99.90;;;;;;5091480;28;20366;-68
2023/02/13 05:01:14;;;;;;;95.00;30.48;;;-1.70;99.90;;;;;;5091776;28;20071;-69
2023/02/13 05:03:40;;;;;;;90.22;31.48;;;-1.80;99.90;;;;;;5090608;28;20700;-68
2023/02/13 05:06:06;;;;;;;101.53;32.40;;;-1.80;99.90;;;;;;5092109;28;20035;-68
2023/02/13 05:08:31;;;;;;;118.40;35.33;;;-1.80;99.90;;;;;;5084701;28;20461;-66
2023/02/13 05:10:57;;;;;;;106.07;33.25;;;-1.80;99.90;;;;;;5100844;28;20034;-68
2023/02/13 05:13:23;;;;;;;109.25;33.90;;;-1.80;99.90;;;;;;5091482;28;20027;-70
2023/02/13 05:15:48;;;;;;;97.60;31.80;;;-1.70;99.90;;;;;;5091311;28;20051;-67
2023/02/13 05:18:14;;;;;;;96.43;31.98;;;-1.80;99.90;;;;;;5091009;28;20372;-68
2023/02/13 05:20:41;;;;;;;93.95;29.85;;;-1.80;99.90;;;;;;5090549;28;20407;-69
2023/02/13 05:23:22;;;;;;;92.55;29.80;;;-1.80;99.90;;;;;;5091572;28;20089;-69
2023/02/13 05:25:48;;;;;;;92.07;30.33;;;-1.80;99.90;;;;;;5069547;28;20097;-70
2023/02/13 05:30:59;;;;;;;99.07;29.63;;;-1.90;99.90;;;;;;5091292;28;20498;-69
2023/02/13 05:33:26;;;;;;;101.47;32.47;;;-1.90;99.90;;;;;;5090287;28;20119;-70
2023/02/13 05:35:51;;;;;;;98.53;29.65;;;-1.90;99.90;;;;;;5091833;28;20099;-68
2023/02/13 05:38:17;;;;;;;105.07;32.13;;;-2.00;99.90;;;;;;5095034;28;20127;-67
2023/02/13 05:40:42;;;;;;;103.68;31.65;;;-2.00;99.90;;;;;;5090183;28;20035;-68
2023/02/13 05:43:08;;;;;;;94.20;31.55;;;-2.00;99.90;;;;;;5085526;28;20028;-68
2023/02/13 05:45:34;;;;;;;106.60;33.00;;;-2.00;99.90;;;;;;5097772;28;20063;-67
2023/02/13 05:47:59;;;;;;;111.55;32.13;;;-2.10;99.90;;;;;;5091304;28;20028;-67
2023/02/13 05:50:25;;;;;;;102.07;31.35;;;-2.10;99.90;;;;;;5090164;28;20064;-70
2023/02/13 05:52:50;;;;;;;105.10;32.50;;;-2.10;99.90;;;;;;5091625;28;20384;-67
2023/02/13 05:55:16;;;;;;;105.88;33.70;;;-2.20;99.90;;;;;;5090953;28;20030;-65
2023/02/13 05:57:41;;;;;;;102.97;34.17;;;-2.10;99.90;;;;;;5090083;28;20590;-67
2023/02/13 06:00:08;;;;;;;101.10;33.47;;;-2.10;99.90;;;;;;5084344;28;20036;-67
2023/02/13 06:02:33;;;;;;;110.30;32.45;;;-2.10;99.90;;;;;;5079594;28;20112;-67
2023/02/13 06:04:59;;;;;;;98.28;33.42;;;-2.10;99.90;;;;;;5072124;28;20060;-67
2023/02/13 06:07:24;;;;;;;115.57;35.78;;;-2.10;99.90;;;;;;5086043;28;20020;-69
2023/02/13 06:09:50;;;;;;;125.53;37.38;;;-2.10;99.90;;;;;;5090943;28;20426;-67
2023/02/13 06:12:15;;;;;;;124.70;35.30;;;-2.10;99.90;;;;;;5090983;28;20024;-67
2023/02/13 06:14:41;;;;;;;105.35;35.65;;;-2.10;99.90;;;;;;5090016;28;20039;-66
2023/02/13 06:17:07;;;;;;;115.38;38.53;;;-2.00;99.90;;;;;;5090518;28;20024;-67
2023/02/13 06:19:32;;;;;;;113.82;37.00;;;-2.00;99.90;;;;;;5078295;28;20422;-66
2023/02/13 06:21:58;;;;;;;107.45;36.80;;;-2.00;99.90;;;;;;5091450;28;20038;-67
2023/02/13 06:24:23;;;;;;;101.68;36.17;;;-2.00;99.90;;;;;;5089794;28;20032;-69
2023/02/13 06:26:49;;;;;;;115.78;36.17;;;-2.00;99.90;;;;;;5090170;28;20056;-66
2023/02/13 06:29:15;;;;;;;112.13;35.85;;;-2.00;99.90;;;;;;5091033;28;20105;-66
2023/02/13 06:31:40;;;;;;;129.02;39.33;;;-2.00;99.90;;;;;;5093623;28;20024;-66
2023/02/13 06:34:06;;;;;;;120.55;37.67;;;-2.00;99.90;;;;;;5093657;28;20085;-68
2023/02/13 06:36:32;;;;;;;135.20;38.72;;;-2.00;99.90;;;;;;5093298;28;20016;-68
2023/02/13 06:38:58;;;;;;;123.55;37.85;;;-2.00;99.90;;;;;;5093671;28;20416;-65
2023/02/13 06:41:23;;;;;;;130.20;38.63;;;-2.00;99.90;;;;;;5093546;28;20054;-69
2023/02/13 06:43:49;;;;;;;137.38;40.00;;;-1.90;99.90;;;;;;5093754;28;20027;-66
2023/02/13 06:46:15;;;;;;;139.68;40.30;;;-1.90;99.90;;;;;;5094140;28;20447;-66
2023/02/13 06:48:41;;;;;;;126.53;38.03;;;-1.90;99.90;;;;;;5092568;28;20024;-66
2023/02/13 06:51:06;;;;;;;126.38;37.85;;;-1.90;99.90;;;;;;5093764;28;20601;-67
2023/02/13 06:53:32;;;;;;;116.32;36.42;;;-1.90;99.90;;;;;;5092156;28;20020;-66
2023/02/13 06:55:57;;;;;;;125.13;37.33;;;-1.90;99.90;;;;;;5090030;28;20503;-67
2023/02/13 06:58:24;;;;;;;151.77;40.80;;;-1.90;99.90;;;;;;5093246;28;20070;-69
2023/02/13 07:00:51;;;;;;;125.60;37.65;;;-1.90;99.90;;;;;;5093720;28;20123;-66
2023/02/13 07:03:17;;;;;;;125.65;36.78;;;-1.90;99.90;;;;;;5094281;28;20031;-67
2023/02/13 07:05:43;;;;;;;150.02;41.45;;;-1.90;99.90;;;;;;5091395;28;20024;-67
2023/02/13 07:08:10;;;;;;;131.35;40.70;;;-1.80;99.90;;;;;;5082130;28;20445;-69
2023/02/13 07:10:40;;;;;;;125.28;40.05;;;-1.80;99.90;;;;;;5068243;28;20076;-69
2023/02/13 07:13:06;;;;;;;;;;;-1.70;99.90;;;;;;5077278;28;20038;-70
2023/02/13 07:15:33;;;;;;;117.28;36.78;;;-1.70;99.90;;;;;;5072586;28;20533;-65
2023/02/13 07:17:59;;;;;;;124.15;37.40;;;-1.70;99.90;;;;;;5080171;28;20032;-66
2023/02/13 07:20:26;;;;;;;132.60;41.72;;;-1.70;99.90;;;;;;5087437;28;20092;-67
2023/02/13 07:22:52;;;;;;;146.38;42.63;;;-1.70;99.90;;;;;;5103321;28;20103;-66
2023/02/13 07:25:18;;;;;;;146.30;44.40;;;-1.70;99.90;;;;;;5092183;28;20176;-66
2023/02/13 07:27:44;;;;;;;150.63;46.00;;;-1.70;99.90;;;;;;5091623;28;20197;-68
2023/02/13 07:30:10;;;;;;;149.40;45.00;;;-1.60;99.90;;;;;;5073885;28;20484;-67
2023/02/13 07:32:36;;;;;;;148.13;45.92;;;-1.60;99.90;;;;;;5081243;28;20063;-68
2023/02/13 07:35:02;;;;;;;157.80;45.42;;;-1.60;99.90;;;;;;5087077;28;20052;-71
2023/02/13 07:37:29;;;;;;;141.35;43.67;;;-1.50;99.90;;;;;;5092093;28;20035;-66
2023/02/13 07:39:55;;;;;;;173.43;49.30;;;-1.50;99.90;;;;;;5082609;28;20036;-66
2023/02/13 07:42:20;;;;;;;145.23;45.35;;;-1.40;99.90;;;;;;5091574;28;20035;-69
2023/02/13 07:44:46;;;;;;;160.30;46.50;;;-1.30;99.90;;;;;;5092035;28;20028;-67
2023/02/13 07:47:11;;;;;;;153.55;44.83;;;-1.30;99.90;;;;;;5091976;28;20024;-66
2023/02/13 07:49:37;;;;;;;148.07;45.03;;;-1.20;99.90;;;;;;5091075;28;20024;-68
2023/02/13 07:52:04;;;;;;;147.18;46.95;;;-1.20;99.90;;;;;;5083010;28;20103;-67
2023/02/13 07:54:30;;;;;;;147.63;46.65;;;-1.00;99.90;;;;;;5092080;28;20020;-66
2023/02/13 07:56:56;;;;;;;143.45;45.50;;;-0.90;99.90;;;;;;5092466;28;20089;-66
2023/02/13 07:59:22;;;;;;;152.68;46.58;;;-0.90;99.90;;;;;;5091290;28;20032;-69
2023/02/13 08:01:47;;;;;;;152.57;46.17;;;-0.80;99.90;;;;;;5092114;28;20365;-67
2023/02/13 08:04:13;;;;;;;141.90;47.10;;;-0.70;99.90;;;;;;5091919;28;20085;-67
2023/02/13 08:06:39;;;;;;;130.75;44.03;;;-0.70;99.90;;;;;;5091320;28;20028;-67
2023/02/13 08:11:53;;;;;;;149.63;45.90;;;-0.60;99.90;;;;;;5092027;28;20030;-67
2023/02/13 08:14:21;;;;;;;143.35;46.90;;;-0.50;99.90;;;;;;5099183;28;20133;-68
2023/02/13 08:16:46;;;;;;;147.93;48.03;;;-0.50;99.90;;;;;;5103094;28;20529;-67
2023/02/13 08:19:12;;;;;;;137.00;45.50;;;-0.40;99.90;;;;;;5092932;28;20028;-67
2023/02/13 08:21:39;;;;;;;151.45;46.92;;;-0.30;99.90;;;;;;5072345;28;20054;-68
2023/02/13 08:24:05;;;;;;;129.82;46.20;;;-0.20;99.90;;;;;;5102264;28;20165;-68
2023/02/13 08:26:31;;;;;;;169.93;51.78;;;-0.10;99.90;;;;;;5096727;28;20020;-67
2023/02/13 08:28:57;;;;;;;150.23;50.63;;;0.00;99.90;;;;;;5090958;28;20047;-68
2023/02/13 08:31:23;;;;;;;131.10;47.00;;;0.20;99.90;;;;;;5090758;28;20393;-70
2023/02/13 08:33:49;;;;;;;129.20;47.17;;;0.40;99.90;;;;;;5092628;28;20088;-68
2023/02/13 08:36:14;;;;;;;116.68;45.45;;;0.60;99.90;;;;;;5091510;28;20039;-66
2023/02/13 08:38:40;;;;;;;129.05;44.65;;;0.70;99.90;;;;;;5087687;28;20490;-66
2023/02/13 08:41:05;;;;;;;113.68;44.47;;;0.90;99.90;;;;;;5091179;28;20032;-66
2023/02/13 08:43:31;;;;;;;124.53;44.80;;;1.00;99.90;;;;;;5088685;28;20149;-66
2023/02/13 08:45:58;;;;;;;124.07;44.97;;;1.10;99.90;;;;;;5091831;28;20051;-67
2023/02/13 08:48:24;;;;;;;101.88;41.88;;;1.20;99.90;;;;;;5090930;28;20040;-71
2023/02/13 08:50:49;;;;;;;98.35;40.30;;;1.20;99.90;;;;;;5091424;28;20028;-68
2023/02/13 08:53:15;;;;;;;85.20;37.53;;;1.40;99.90;;;;;;5086125;28;20030;-68
2023/02/13 08:55:41;;;;;;;84.53;35.58;;;1.50;99.90;;;;;;5090242;28;20077;-68
2023/02/13 08:58:06;;;;;;;76.88;31.77;;;1.60;99.90;;;;;;5091467;28;20480;-68
2023/02/13 09:00:32;;;;;;;63.47;28.35;;;1.70;99.90;;;;;;5089977;28;20028;-68
2023/02/13 09:03:01;;;;;;;59.42;27.50;;;1.90;99.90;;;;;;5091752;28;20023;-68
2023/02/13 09:05:28;;;;;;;47.63;23.88;;;2.10;99.90;;;;;;5083896;28;20473;-68
2023/02/13 09:07:53;;;;;;;41.10;22.92;;;2.20;99.90;;;;;;5077207;28;20056;-68
2023/02/13 09:10:19;;;;;;;41.30;21.25;;;2.30;99.90;;;;;;5085098;28;20124;-67
2023/02/13 09:12:51;;;;;;;37.25;20.33;;;2.50;99.90;;;;;;5090816;28;20028;-67
2023/02/13 09:15:17;;;;;;;34.38;18.80;;;2.60;99.90;;;;;;5090480;28;20085;-67
2023/02/13 09:17:43;;;;;;;36.05;19.67;;;2.80;99.90;;;;;;5088267;28;20043;-67
2023/02/13 09:20:09;;;;;;;33.40;18.33;;;3.00;99.90;;;;;;5090328;28;20034;-67
2023/02/13 09:22:34;;;;;;;31.02;17.10;;;3.10;99.90;;;;;;5098246;28;20465;-69
2023/02/13 09:25:03;;;;;;;27.10;16.65;;;3.30;99.90;;;;;;5094141;28;20059;-68
2023/02/13 09:27:29;;;;;;;25.85;15.45;;;3.40;99.90;;;;;;5085674;28;20036;-68
2023/02/13 09:29:55;;;;;;;26.30;16.25;;;3.50;99.90;;;;;;5091165;28;20028;-68
2023/02/13 09:32:20;;;;;;;23.23;15.40;;;3.60;99.90;;;;;;5091296;28;20030;-68
2023/02/13 09:34:46;;;;;;;26.98;16.38;;;3.70;99.90;;;;;;5089483;28;20447;-68
2023/02/13 09:37:12;;;;;;;23.95;15.30;;;3.80;99.90;;;;;;5091116;28;20473;-68
2023/02/13 09:39:37;;;;;;;22.42;13.60;;;3.90;99.90;;;;;;5089414;28;20031;-68
2023/02/13 09:42:36;;;;;;;19.33;13.10;;;4.10;99.90;;;;;;5091197;28;20032;-68
2023/02/13 09:45:05;;;;;;;21.33;13.38;;;4.10;99.90;;;;;;5068966;28;20032;-69
2023/02/13 09:47:31;;;;;;;22.20;12.95;;;4.20;99.90;;;;;;5090186;28;20028;-68
2023/02/13 09:50:06;;;;;;;22.30;13.93;;;4.30;99.90;;;;;;5090367;28;20112;-68
2023/02/13 09:52:34;;;;;;;25.35;14.25;;;4.40;99.90;;;;;;5087505;28;20048;-68
2023/02/13 09:55:01;;;;;;;20.92;13.18;;;4.50;99.90;;;;;;5090461;28;20032;-71
2023/02/13 09:57:42;;;;;;;22.92;12.48;;;4.60;99.90;;;;;;5089733;28;20448;-68
2023/02/13 10:00:18;;;;;;;22.13;13.32;;;4.70;99.90;;;;;;5090439;28;20103;-68
2023/02/13 10:02:55;;;;;;;19.63;13.07;;;4.80;99.90;;;;;;5090128;28;20024;-68
2023/02/13 10:05:33;;;;;;;19.77;12.70;;;4.80;99.90;;;;;;5093214;28;20024;-71
2023/02/13 10:08:08;;;;;;;21.42;12.07;;;5.00;99.90;;;;;;5079153;28;20025;-68
2023/02/13 10:10:57;;;;;;;19.85;12.65;;;5.10;99.90;;;;;;5093751;28;20032;-68
2023/02/13 10:13:40;;;;;;;17.83;12.02;;;5.20;99.90;;;;;;5094042;28;20020;-70
2023/02/13 10:16:11;;;;;;;19.27;12.93;;;5.30;99.90;;;;;;5094814;28;20024;-68
2023/02/13 10:19:09;;;;;;;19.73;12.75;;;5.30;99.90;;;;;;5093241;28;20020;-67
2023/02/13 10:21:49;;;;;;;18.02;12.85;;;5.40;99.90;;;;;;5087295;28;20449;-67
2023/02/13 10:24:35;;;;;;;20.67;11.82;;;5.50;99.90;;;;;;5084457;28;20020;-67
2023/02/13 10:27:08;;;;;;;15.43;10.50;;;5.60;99.90;;;;;;5087835;28;20071;-67
2023/02/13 10:30:04;;;;;;;20.33;12.02;;;5.70;99.90;;;;;;5092634;28;20101;-67
2023/02/13 10:32:50;;;;;;;16.55;11.25;;;;;;;;;;5080493;28;20478;-67
2023/02/13 10:35:16;;;;;;;20.63;12.02;;;;;;;;;;5072032;28;20039;-67
2023/02/13 10:37:43;;;;;;;16.00;11.18;;;6.10;99.90;;;;;;5088791;28;20065;-68
2023/02/13 10:40:10;;;;;;;21.40;11.68;;;6.20;99.90;;;;;;5093173;28;20043;-68
2023/02/13 10:42:44;;;;;;;16.13;10.80;;;6.20;99.90;;;;;;5083178;28;20390;-67
2023/02/13 10:45:28;;;;;;;17.00;10.75;;;6.40;99.90;;;;;;5091484;28;20028;-68
2023/02/13 10:48:12;;;;;;;18.38;11.75;;;6.50;99.90;;;;;;5090600;28;20532;-68
2023/02/13 10:50:52;;;;;;;17.35;10.68;;;6.60;99.90;;;;;;5086277;28;20024;-69
2023/02/13 10:53:35;;;;;;;14.63;9.38;;;6.70;99.90;;;;;;5094102;28;20120;-69
2023/02/13 10:56:17;;;;;;;16.70;10.63;;;6.80;99.90;;;;;;5093740;28;20511;-68
2023/02/13 10:59:00;;;;;;;13.65;9.85;;;6.90;99.90;;;;;;5089992;28;20031;-69
2023/02/13 11:01:44;;;;;;;14.48;9.90;;;7.00;99.90;;;;;;5079779;28;20063;-71
2023/02/13 11:04:12;;;;;;;15.07;9.55;;;7.00;99.90;;;;;;5093297;28;20035;-70
2023/02/13 11:06:43;;;;;;;13.98;9.88;;;7.10;99.90;;;;;;5092792;28;20071;-72
2023/02/13 11:09:09;;;;;;;14.38;9.98;;;7.20;99.90;;;;;;5085031;28;20107;-69
2023/02/13 11:11:40;;;;;;;14.63;10.05;;;7.30;99.90;;;;;;5092974;28;20108;-69
2023/02/13 11:14:08;;;;;;;13.63;9.77;;;7.40;99.90;;;;;;5093144;28;20020;-71
2023/02/13 11:16:48;;;;;;;16.77;10.43;;;7.40;99.90;;;;;;5082367;28;20078;-69
2023/02/13 11:19:31;;;;;;;13.35;9.65;;;7.50;99.90;;;;;;5092200;28;20034;-68
2023/02/13 11:22:01;;;;;;;14.25;10.30;;;7.50;99.90;;;;;;5096224;28;20107;-71
2023/02/13 11:24:28;;;;;;;15.18;9.45;;;7.50;99.90;;;;;;5101769;28;20052;-71
2023/02/13 11:27:07;;;;;;;13.73;9.95;;;7.50;99.90;;;;;;5092457;28;20111;-73
2023/02/13 11:29:36;;;;;;;14.20;9.82;;;7.60;99.90;;;;;;5086684;28;20028;-68
2023/02/13 11:32:04;;;;;;;13.18;9.35;;;7.70;99.90;;;;;;5081096;28;20481;-72
2023/02/13 11:34:32;;;;;;;12.50;8.65;;;7.70;99.90;;;;;;5091012;28;20021;-71
2023/02/13 11:37:19;;;;;;;11.00;8.50;;;7.80;99.90;;;;;;5095982;28;20103;-71
2023/02/13 11:39:46;;;;;;;13.18;9.05;;;7.80;99.90;;;;;;5090515;28;20020;-69
2023/02/13 11:42:19;;;;;;;14.57;8.75;;;7.80;99.90;;;;;;5093015;28;20027;-69
2023/02/13 11:44:51;;;;;;;12.25;8.82;;;7.80;99.90;;;;;;5093656;28;20427;-69
2023/02/13 11:47:39;;;;;;;11.05;8.48;;;7.80;99.90;;;;;;5092282;28;20034;-70
2023/02/13 11:50:19;;;;;;;11.48;8.10;;;7.90;99.90;;;;;;5086909;28;20029;-69
2023/02/13 11:53:01;;;;;;;12.27;8.43;;;7.90;99.90;;;;;;5089616;28;20020;-69
2023/02/13 11:55:29;;;;;;;16.05;8.93;;;7.90;99.90;;;;;;5084682;28;20031;-70
2023/02/13 11:58:27;;;;;;;14.70;9.20;;;7.80;99.90;;;;;;5092254;28;20028;-70
2023/02/13 12:01:07;;;;;;;11.77;8.55;;;7.80;99.90;;;;;;5079819;28;20052;-69
2023/02/13 12:03:32;;;;;;;;;;;7.90;99.90;;;;;;5085094;28;20323;-69
2023/02/13 12:06:03;;;;;;;12.00;8.10;;;7.90;99.90;;;;;;5089266;28;19922;-70
2023/02/13 12:08:31;;;;;;;13.70;10.05;;;7.90;99.90;;;;;;5081373;28;20493;-69
2023/02/13 12:10:59;;;;;;;12.25;8.63;;;8.00;99.90;;;;;;5092656;28;20028;-69
2023/02/13 12:13:37;;;;;;;13.73;8.95;;;8.00;99.90;;;;;;5091243;28;20017;-73
2023/02/13 12:16:36;;;;;;;14.38;9.98;;;8.00;99.90;;;;;;5092762;28;20408;-71
2023/02/13 12:19:06;;;;;;;12.60;8.93;;;8.10;99.90;;;;;;5091665;28;20025;-68
2023/02/13 12:21:59;;;;;;;13.75;9.45;;;8.10;99.90;;;;;;5092040;28;20039;-68
2023/02/13 12:24:46;;;;;;;12.43;9.55;;;8.20;99.90;;;;;;5082824;28;20036;-70
2023/02/13 12:27:41;;;;;;;15.63;10.27;;;8.30;99.90;;;;;;5087581;28;20500;-69
2023/02/13 12:30:22;;;;;;;13.85;10.68;;;8.50;99.90;;;;;;5071941;28;20465;-69
2023/02/13 12:32:59;;;;;;;;;;;8.50;99.90;;;;;;5072484;28;20095;-68
2023/02/13 12:35:25;;;;;;;16.92;10.35;;;8.60;99.90;;;;;;5058490;28;20361;-72
2023/02/13 12:38:11;;;;;;;13.07;9.43;;;8.60;99.90;;;;;;5069155;28;20036;-69
2023/02/13 12:40:52;;;;;;;16.27;10.25;;;8.50;99.90;;;;;;5065671;28;20474;-69
2023/02/13 12:43:21;;;;;;;14.75;10.43;;;8.40;99.90;;;;;;5069998;28;20028;-68
2023/02/13 12:45:57;;;;;;;14.27;10.35;;;8.50;99.90;;;;;;5070886;28;20479;-68
2023/02/13 12:48:55;;;;;;;15.13;9.55;;;8.40;99.90;;;;;;5070386;28;20032;-71
2023/02/13 12:51:48;;;;;;;12.43;9.43;;;8.60;99.90;;;;;;5069482;28;20024;-72
2023/02/13 12:54:14;;;;;;;13.50;9.48;;;;;;;;;;5070796;28;20059;-69
2023/02/13 12:56:57;;;;;;;14.82;9.27;;;9.50;99.90;;;;;;5071984;28;20024;-68
2023/02/13 12:59:34;;;;;;;12.13;8.23;;;9.70;99.90;;;;;;5061704;28;20090;-72
2023/02/13 13:02:36;;;;;;;12.73;8.82;;;10.30;99.90;;;;;;5074354;28;20047;-68
2023/02/13 13:05:26;;;;;;;12.23;7.97;;;10.70;99.90;;;;;;5072365;28;20088;-70
2023/02/13 13:08:12;;;;;;;9.80;7.80;;;11.20;99.90;;;;;;5073142;28;20029;-69
2023/02/13 13:10:50;;;;;;;10.40;8.38;;;11.90;99.90;;;;;;5072643;28;20029;-69
2023/02/13 13:13:39;;;;;;;13.25;8.43;;;12.20;99.90;;;;;;5073421;28;20016;-68
2023/02/13 13:16:18;;;;;;;20.95;9.82;;;12.60;99.70;;;;;;5066235;28;20373;-68
2023/02/13 13:18:53;;;;;;;12.68;9.00;;;13.00;98.90;;;;;;5069720;28;20020;-69
2023/02/13 13:21:26;;;;;;;12.30;8.88;;;13.20;98.50;;;;;;5070970;28;20036;-68
2023/02/13 13:24:00;;;;;;;12.50;9.10;;;13.50;97.70;;;;;;5081439;28;20036;-68
2023/02/13 13:26:38;;;;;;;11.20;9.25;;;13.60;97.00;;;;;;5070333;28;20029;-70
2023/02/13 13:29:11;;;;;;;14.60;8.82;;;13.50;97.00;;;;;;5069969;28;20076;-69
2023/02/13 13:31:37;;;;;;;10.57;7.90;;;13.70;96.80;;;;;;5068517;28;20381;-69
2023/02/13 13:34:10;;;;;;;12.88;7.72;;;13.70;96.60;;;;;;5059836;28;20050;-68
2023/02/13 13:36:59;;;;;;;10.57;8.68;;;13.80;97.10;;;;;;5070270;28;20058;-68
2023/02/13 13:39:32;;;;;;;11.25;8.55;;;13.80;95.70;;;;;;5067627;28;20501;-69
2023/02/13 13:41:59;;;;;;;16.90;7.97;;;13.80;95.70;;;;;;5072202;28;20039;-69